sensor_id;sensor_type;location;lat;lon;timestamp;temperature;humidity
13186;DHT22;6658;53.080;7.428;2022-07-23T00:00:15;14.00;99.90
13186;DHT22;6658;53.080;7.428;2022-07-23T00:02:40;14.00;99.90
13186;DHT22;6658;53.080;7.428;2022-07-23T00:05:06;14.00;99.90
13186;DHT22;6658;53.080;7.428;2022-07-23T00:07:32;14.00;99.90
13186;DHT22;6658;53.080;7.428;2022-07-23T00:09:58;14.10;99.90
13186;DHT22;6658;53.080;7.428;2022-07-23T00:12:24;14.10;99.90
13186;DHT22;6658;53.080;7.428;2022-07-23T00:14:50;14.20;99.90
13186;DHT22;6658;53.080;7.428;2022-07-23T00:17:15;14.20;99.90
13186;DHT22;6658;53.080;7.428;2022-07-23T00:19:41;14.20;99.90
13186;DHT22;6658;53.080;7.428;2022-07-23T00:22:07;14.30;99.90
13186;DHT22;6658;53.080;7.428;2022-07-23T00:24:33;14.30;99.90
13186;DHT22;6658;53.080;7.428;2022-07-23T00:26:59;14.30;99.90
13186;DHT22;6658;53.080;7.428;2022-07-23T00:29:24;14.30;99.90
13186;DHT22;6658;53.080;7.428;2022-07-23T00:31:50;14.40;99.90
13186;DHT22;6658;53.080;7.428;2022-07-23T00:34:16;14.40;99.90
13186;DHT22;6658;53.080;7.428;2022-07-23T00:36:41;14.40;99.90
13186;DHT22;6658;53.080;7.428;2022-07-23T00:39:07;14.40;99.90
13186;DHT22;6658;53.080;7.428;2022-07-23T00:41:33;14.50;99.90
13186;DHT22;6658;53.080;7.428;2022-07-23T00:44:15;14.50;99.90
13186;DHT22;6658;53.080;7.428;2022-07-23T00:46:55;14.50;99.90
13186;DHT22;6658;53.080;7.428;2022-07-23T00:49:28;14.50;99.90
13186;DHT22;6658;53.080;7.428;2022-07-23T00:51:54;14.50;99.90
13186;DHT22;6658;53.080;7.428;2022-07-23T00:54:25;14.50;99.90
13186;DHT22;6658;53.080;7.428;2022-07-23T00:56:51;14.50;99.90
13186;DHT22;6658;53.080;7.428;2022-07-23T00:59:17;14.50;99.90
13186;DHT22;6658;53.080;7.428;2022-07-23T01:01:43;14.50;99.90
13186;DHT22;6658;53.080;7.428;2022-07-23T01:04:15;14.50;99.90
13186;DHT22;6658;53.080;7.428;2022-07-23T01:06:41;14.40;99.90
13186;DHT22;6658;53.080;7.428;2022-07-23T01:09:08;14.40;99.90
13186;DHT22;6658;53.080;7.428;2022-07-23T01:11:35;14.40;99.90
13186;DHT22;6658;53.080;7.428;2022-07-23T01:14:26;14.30;99.90
13186;DHT22;6658;53.080;7.428;2022-07-23T01:16:52;14.30;99.90
13186;DHT22;6658;53.080;7.428;2022-07-23T01:19:18;14.30;99.90
13186;DHT22;6658;53.080;7.428;2022-07-23T01:21:47;14.30;99.90
13186;DHT22;6658;53.080;7.428;2022-07-23T01:24:14;14.20;99.90
13186;DHT22;6658;53.080;7.428;2022-07-23T01:26:44;14.20;99.90
13186;DHT22;6658;53.080;7.428;2022-07-23T01:29:11;14.10;99.90
13186;DHT22;6658;53.080;7.428;2022-07-23T01:31:36;14.10;99.90
13186;DHT22;6658;53.080;7.428;2022-07-23T01:34:02;14.00;99.90
13186;DHT22;6658;53.080;7.428;2022-07-23T01:36:28;14.00;99.90
13186;DHT22;6658;53.080;7.428;2022-07-23T01:38:54;13.90;99.90
13186;DHT22;6658;53.080;7.428;2022-07-23T01:41:20;13.80;99.90
13186;DHT22;6658;53.080;7.428;2022-07-23T01:43:46;13.80;99.90
13186;DHT22;6658;53.080;7.428;2022-07-23T01:46:12;13.70;99.90
13186;DHT22;6658;53.080;7.428;2022-07-23T01:48:38;13.70;99.90
13186;DHT22;6658;53.080;7.428;2022-07-23T01:51:04;13.70;99.90
13186;DHT22;6658;53.080;7.428;2022-07-23T01:53:29;13.70;99.90
13186;DHT22;6658;53.080;7.428;2022-07-23T01:55:58;13.60;99.90
13186;DHT22;6658;53.080;7.428;2022-07-23T01:58:25;13.60;99.90
13186;DHT22;6658;53.080;7.428;2022-07-23T02:00:51;13.50;99.90
13186;DHT22;6658;53.080;7.428;2022-07-23T02:03:16;13.40;99.90
13186;DHT22;6658;53.080;7.428;2022-07-23T02:05:42;13.40;99.90
13186;DHT22;6658;53.080;7.428;2022-07-23T02:08:08;13.30;99.90
13186;DHT22;6658;53.080;7.428;2022-07-23T02:10:34;13.30;99.90
13186;DHT22;6658;53.080;7.428;2022-07-23T02:12:59;13.20;99.90
13186;DHT22;6658;53.080;7.428;2022-07-23T02:15:25;13.10;99.90
13186;DHT22;6658;53.080;7.428;2022-07-23T02:17:51;13.10;99.90
13186;DHT22;6658;53.080;7.428;2022-07-23T02:20:16;13.00;99.90
13186;DHT22;6658;53.080;7.428;2022-07-23T02:22:42;12.90;99.90
13186;DHT22;6658;53.080;7.428;2022-07-23T02:25:08;12.90;99.90
13186;DHT22;6658;53.080;7.428;2022-07-23T02:27:34;12.90;99.90
13186;DHT22;6658;53.080;7.428;2022-07-23T02:30:00;12.80;99.90
13186;DHT22;6658;53.080;7.428;2022-07-23T02:32:26;12.70;99.90
13186;DHT22;6658;53.080;7.428;2022-07-23T02:34:51;12.70;99.90
13186;DHT22;6658;53.080;7.428;2022-07-23T02:37:17;12.60;99.90
13186;DHT22;6658;53.080;7.428;2022-07-23T02:39:43;12.50;99.90
13186;DHT22;6658;53.080;7.428;2022-07-23T02:42:09;12.50;99.90
13186;DHT22;6658;53.080;7.428;2022-07-23T02:44:35;12.40;99.90
13186;DHT22;6658;53.080;7.428;2022-07-23T02:47:00;12.40;99.90
13186;DHT22;6658;53.080;7.428;2022-07-23T02:49:26;12.40;99.90
13186;DHT22;6658;53.080;7.428;2022-07-23T02:51:52;12.30;99.90
13186;DHT22;6658;53.080;7.428;2022-07-23T02:54:18;12.30;99.90
13186;DHT22;6658;53.080;7.428;2022-07-23T02:56:44;12.30;99.90
13186;DHT22;6658;53.080;7.428;2022-07-23T02:59:09;12.20;99.90
13186;DHT22;6658;53.080;7.428;2022-07-23T03:01:36;12.20;99.90
13186;DHT22;6658;53.080;7.428;2022-07-23T03:04:01;12.20;99.90
13186;DHT22;6658;53.080;7.428;2022-07-23T03:06:27;12.20;99.90
13186;DHT22;6658;53.080;7.428;2022-07-23T03:08:53;12.10;99.90
13186;DHT22;6658;53.080;7.428;2022-07-23T03:11:18;12.10;99.90
13186;DHT22;6658;53.080;7.428;2022-07-23T03:13:44;12.10;99.90
13186;DHT22;6658;53.080;7.428;2022-07-23T03:16:10;12.10;99.90
13186;DHT22;6658;53.080;7.428;2022-07-23T03:18:35;12.10;99.90
13186;DHT22;6658;53.080;7.428;2022-07-23T03:21:01;12.10;99.90
13186;DHT22;6658;53.080;7.428;2022-07-23T03:23:27;12.00;99.90
13186;DHT22;6658;53.080;7.428;2022-07-23T03:25:53;12.00;99.90
13186;DHT22;6658;53.080;7.428;2022-07-23T03:28:19;12.00;99.90
13186;DHT22;6658;53.080;7.428;2022-07-23T03:30:45;11.90;99.90
13186;DHT22;6658;53.080;7.428;2022-07-23T03:33:18;11.90;99.90
13186;DHT22;6658;53.080;7.428;2022-07-23T03:35:46;11.90;99.90
13186;DHT22;6658;53.080;7.428;2022-07-23T03:38:12;11.80;99.90
13186;DHT22;6658;53.080;7.428;2022-07-23T03:40:38;11.80;99.90
13186;DHT22;6658;53.080;7.428;2022-07-23T03:43:04;11.80;99.90
13186;DHT22;6658;53.080;7.428;2022-07-23T03:45:30;11.80;99.90
13186;DHT22;6658;53.080;7.428;2022-07-23T03:47:56;11.80;99.90
13186;DHT22;6658;53.080;7.428;2022-07-23T03:50:22;11.80;99.90
13186;DHT22;6658;53.080;7.428;2022-07-23T03:52:47;11.80;99.90
13186;DHT22;6658;53.080;7.428;2022-07-23T03:55:13;11.80;99.90
13186;DHT22;6658;53.080;7.428;2022-07-23T03:57:40;11.80;99.90
13186;DHT22;6658;53.080;7.428;2022-07-23T04:00:07;11.80;99.90
13186;DHT22;6658;53.080;7.428;2022-07-23T04:02:35;11.80;99.90
13186;DHT22;6658;53.080;7.428;2022-07-23T04:05:00;11.80;99.90
13186;DHT22;6658;53.080;7.428;2022-07-23T04:07:26;11.90;99.90
13186;DHT22;6658;53.080;7.428;2022-07-23T04:09:52;11.90;99.90
13186;DHT22;6658;53.080;7.428;2022-07-23T04:12:18;12.00;99.90
13186;DHT22;6658;53.080;7.428;2022-07-23T04:14:44;12.00;99.90
13186;DHT22;6658;53.080;7.428;2022-07-23T04:17:11;12.00;99.90
13186;DHT22;6658;53.080;7.428;2022-07-23T04:19:36;12.10;99.90
13186;DHT22;6658;53.080;7.428;2022-07-23T04:22:06;12.20;99.90
13186;DHT22;6658;53.080;7.428;2022-07-23T04:24:32;12.20;99.90
13186;DHT22;6658;53.080;7.428;2022-07-23T04:26:58;12.20;99.90
13186;DHT22;6658;53.080;7.428;2022-07-23T04:29:24;12.30;99.90
13186;DHT22;6658;53.080;7.428;2022-07-23T04:31:50;12.30;99.90
13186;DHT22;6658;53.080;7.428;2022-07-23T04:34:16;12.50;99.90
13186;DHT22;6658;53.080;7.428;2022-07-23T04:36:41;12.80;99.90
13186;DHT22;6658;53.080;7.428;2022-07-23T04:39:07;13.30;99.90
13186;DHT22;6658;53.080;7.428;2022-07-23T04:41:33;13.70;99.90
13186;DHT22;6658;53.080;7.428;2022-07-23T04:44:00;14.10;99.90
13186;DHT22;6658;53.080;7.428;2022-07-23T04:46:25;14.50;99.90
13186;DHT22;6658;53.080;7.428;2022-07-23T04:48:51;14.90;99.90
13186;DHT22;6658;53.080;7.428;2022-07-23T04:51:17;15.10;99.90
13186;DHT22;6658;53.080;7.428;2022-07-23T04:53:42;15.20;99.90
13186;DHT22;6658;53.080;7.428;2022-07-23T04:56:08;15.50;99.90
13186;DHT22;6658;53.080;7.428;2022-07-23T04:58:34;15.80;99.90
13186;DHT22;6658;53.080;7.428;2022-07-23T05:01:00;15.80;99.90
13186;DHT22;6658;53.080;7.428;2022-07-23T05:03:26;15.80;99.90
13186;DHT22;6658;53.080;7.428;2022-07-23T05:05:52;15.70;99.90
13186;DHT22;6658;53.080;7.428;2022-07-23T05:08:18;15.60;99.90
13186;DHT22;6658;53.080;7.428;2022-07-23T05:10:43;15.50;99.90
13186;DHT22;6658;53.080;7.428;2022-07-23T05:13:09;15.40;99.90
13186;DHT22;6658;53.080;7.428;2022-07-23T05:15:35;15.30;99.90
13186;DHT22;6658;53.080;7.428;2022-07-23T05:18:00;15.20;99.90
13186;DHT22;6658;53.080;7.428;2022-07-23T05:20:26;15.20;99.90
13186;DHT22;6658;53.080;7.428;2022-07-23T05:22:52;15.20;99.90
13186;DHT22;6658;53.080;7.428;2022-07-23T05:25:17;15.30;99.90
13186;DHT22;6658;53.080;7.428;2022-07-23T05:27:43;15.40;99.90
13186;DHT22;6658;53.080;7.428;2022-07-23T05:30:09;15.50;99.90
13186;DHT22;6658;53.080;7.428;2022-07-23T05:32:35;15.70;99.90
13186;DHT22;6658;53.080;7.428;2022-07-23T05:35:03;15.80;99.90
13186;DHT22;6658;53.080;7.428;2022-07-23T05:37:29;15.90;99.90
13186;DHT22;6658;53.080;7.428;2022-07-23T05:39:54;16.00;99.90
13186;DHT22;6658;53.080;7.428;2022-07-23T05:42:20;16.10;99.90
13186;DHT22;6658;53.080;7.428;2022-07-23T05:44:46;16.20;99.90
13186;DHT22;6658;53.080;7.428;2022-07-23T05:47:11;16.30;99.90
13186;DHT22;6658;53.080;7.428;2022-07-23T05:49:37;16.30;99.90
13186;DHT22;6658;53.080;7.428;2022-07-23T05:52:07;16.40;99.90
13186;DHT22;6658;53.080;7.428;2022-07-23T05:54:36;16.40;99.90
13186;DHT22;6658;53.080;7.428;2022-07-23T05:57:02;16.50;99.90
13186;DHT22;6658;53.080;7.428;2022-07-23T05:59:29;16.40;99.90
13186;DHT22;6658;53.080;7.428;2022-07-23T06:01:54;16.40;99.90
13186;DHT22;6658;53.080;7.428;2022-07-23T06:04:20;16.40;99.90
13186;DHT22;6658;53.080;7.428;2022-07-23T06:06:46;16.50;99.90
13186;DHT22;6658;53.080;7.428;2022-07-23T06:09:11;16.70;99.90
13186;DHT22;6658;53.080;7.428;2022-07-23T06:11:39;17.00;99.90
13186;DHT22;6658;53.080;7.428;2022-07-23T06:14:05;17.20;99.90
13186;DHT22;6658;53.080;7.428;2022-07-23T06:16:30;17.40;99.90
13186;DHT22;6658;53.080;7.428;2022-07-23T06:18:56;17.50;99.90
13186;DHT22;6658;53.080;7.428;2022-07-23T06:21:22;17.40;99.90
13186;DHT22;6658;53.080;7.428;2022-07-23T06:23:47;17.40;99.90
13186;DHT22;6658;53.080;7.428;2022-07-23T06:26:13;17.40;99.90
13186;DHT22;6658;53.080;7.428;2022-07-23T06:28:39;17.40;99.90
13186;DHT22;6658;53.080;7.428;2022-07-23T06:31:04;17.40;99.90
13186;DHT22;6658;53.080;7.428;2022-07-23T06:33:30;17.40;99.90
13186;DHT22;6658;53.080;7.428;2022-07-23T06:35:56;17.40;99.90
13186;DHT22;6658;53.080;7.428;2022-07-23T06:38:21;17.50;99.90
13186;DHT22;6658;53.080;7.428;2022-07-23T06:40:47;17.60;99.90
13186;DHT22;6658;53.080;7.428;2022-07-23T06:43:13;17.70;99.90
13186;DHT22;6658;53.080;7.428;2022-07-23T06:45:38;17.80;99.90
13186;DHT22;6658;53.080;7.428;2022-07-23T06:48:04;18.00;99.90
13186;DHT22;6658;53.080;7.428;2022-07-23T06:50:30;18.10;99.90
13186;DHT22;6658;53.080;7.428;2022-07-23T06:52:56;18.20;99.90
13186;DHT22;6658;53.080;7.428;2022-07-23T06:55:22;18.40;99.90
13186;DHT22;6658;53.080;7.428;2022-07-23T06:57:47;18.60;99.90
13186;DHT22;6658;53.080;7.428;2022-07-23T07:00:13;18.90;99.90
13186;DHT22;6658;53.080;7.428;2022-07-23T07:02:39;19.00;99.90
13186;DHT22;6658;53.080;7.428;2022-07-23T07:05:05;19.20;99.90
13186;DHT22;6658;53.080;7.428;2022-07-23T07:07:31;19.20;99.90
13186;DHT22;6658;53.080;7.428;2022-07-23T07:09:56;19.10;99.90
13186;DHT22;6658;53.080;7.428;2022-07-23T07:12:22;19.00;99.90
13186;DHT22;6658;53.080;7.428;2022-07-23T07:14:48;19.10;99.90
13186;DHT22;6658;53.080;7.428;2022-07-23T07:17:14;19.10;99.90
13186;DHT22;6658;53.080;7.428;2022-07-23T07:19:40;19.30;99.90
13186;DHT22;6658;53.080;7.428;2022-07-23T07:22:06;19.40;99.90
13186;DHT22;6658;53.080;7.428;2022-07-23T07:24:32;19.50;99.90
13186;DHT22;6658;53.080;7.428;2022-07-23T07:26:58;19.40;99.90
13186;DHT22;6658;53.080;7.428;2022-07-23T07:29:23;19.50;99.90
13186;DHT22;6658;53.080;7.428;2022-07-23T07:31:49;19.60;99.90
13186;DHT22;6658;53.080;7.428;2022-07-23T07:34:15;19.70;99.90
13186;DHT22;6658;53.080;7.428;2022-07-23T07:36:40;19.90;99.90
13186;DHT22;6658;53.080;7.428;2022-07-23T07:39:06;20.00;99.90
13186;DHT22;6658;53.080;7.428;2022-07-23T07:41:32;20.10;99.90
13186;DHT22;6658;53.080;7.428;2022-07-23T07:43:57;20.00;99.90
13186;DHT22;6658;53.080;7.428;2022-07-23T07:46:23;20.00;99.90
13186;DHT22;6658;53.080;7.428;2022-07-23T07:48:50;20.20;99.90
13186;DHT22;6658;53.080;7.428;2022-07-23T07:51:15;20.20;99.90
13186;DHT22;6658;53.080;7.428;2022-07-23T07:53:41;20.50;99.90
13186;DHT22;6658;53.080;7.428;2022-07-23T07:56:07;20.80;99.90
13186;DHT22;6658;53.080;7.428;2022-07-23T07:58:33;20.90;99.90
13186;DHT22;6658;53.080;7.428;2022-07-23T08:00:58;20.90;99.90
13186;DHT22;6658;53.080;7.428;2022-07-23T08:03:26;20.90;99.90
13186;DHT22;6658;53.080;7.428;2022-07-23T08:05:51;20.90;99.90
13186;DHT22;6658;53.080;7.428;2022-07-23T08:08:18;21.00;99.90
13186;DHT22;6658;53.080;7.428;2022-07-23T08:10:44;21.10;99.90
13186;DHT22;6658;53.080;7.428;2022-07-23T08:13:13;21.10;99.90
13186;DHT22;6658;53.080;7.428;2022-07-23T08:15:40;20.90;99.90
13186;DHT22;6658;53.080;7.428;2022-07-23T08:18:06;20.80;99.90
13186;DHT22;6658;53.080;7.428;2022-07-23T08:20:32;20.80;99.90
13186;DHT22;6658;53.080;7.428;2022-07-23T08:23:01;20.90;99.90
13186;DHT22;6658;53.080;7.428;2022-07-23T08:25:39;21.50;99.90
13186;DHT22;6658;53.080;7.428;2022-07-23T08:28:07;22.20;99.90
13186;DHT22;6658;53.080;7.428;2022-07-23T08:30:35;22.70;99.90
13186;DHT22;6658;53.080;7.428;2022-07-23T08:33:20;22.90;99.90
13186;DHT22;6658;53.080;7.428;2022-07-23T08:35:48;22.90;99.90
13186;DHT22;6658;53.080;7.428;2022-07-23T08:38:17;22.60;99.90
13186;DHT22;6658;53.080;7.428;2022-07-23T08:40:48;22.30;99.90
13186;DHT22;6658;53.080;7.428;2022-07-23T08:43:20;21.80;99.90
13186;DHT22;6658;53.080;7.428;2022-07-23T08:45:55;21.50;99.90
13186;DHT22;6658;53.080;7.428;2022-07-23T08:48:26;21.10;99.90
13186;DHT22;6658;53.080;7.428;2022-07-23T08:50:54;20.90;99.90
13186;DHT22;6658;53.080;7.428;2022-07-23T08:53:22;21.00;99.90
13186;DHT22;6658;53.080;7.428;2022-07-23T08:55:50;21.10;99.90
13186;DHT22;6658;53.080;7.428;2022-07-23T08:58:17;21.30;99.90
13186;DHT22;6658;53.080;7.428;2022-07-23T09:00:44;21.60;99.90
13186;DHT22;6658;53.080;7.428;2022-07-23T09:03:24;21.80;99.90
13186;DHT22;6658;53.080;7.428;2022-07-23T09:05:51;22.60;99.90
13186;DHT22;6658;53.080;7.428;2022-07-23T09:08:18;23.00;99.90
13186;DHT22;6658;53.080;7.428;2022-07-23T09:10:56;22.90;99.90
13186;DHT22;6658;53.080;7.428;2022-07-23T09:16:19;21.80;99.90
13186;DHT22;6658;53.080;7.428;2022-07-23T09:19:05;21.20;99.90
13186;DHT22;6658;53.080;7.428;2022-07-23T09:24:08;21.20;99.90
13186;DHT22;6658;53.080;7.428;2022-07-23T09:29:01;22.00;99.90
13186;DHT22;6658;53.080;7.428;2022-07-23T09:31:44;21.60;99.90
13186;DHT22;6658;53.080;7.428;2022-07-23T09:34:19;21.30;99.90
13186;DHT22;6658;53.080;7.428;2022-07-23T09:36:46;21.10;99.90
13186;DHT22;6658;53.080;7.428;2022-07-23T09:39:13;21.40;99.90
13186;DHT22;6658;53.080;7.428;2022-07-23T09:41:43;21.60;99.90
13186;DHT22;6658;53.080;7.428;2022-07-23T09:44:15;21.50;99.90
13186;DHT22;6658;53.080;7.428;2022-07-23T09:46:42;21.30;99.90
13186;DHT22;6658;53.080;7.428;2022-07-23T09:49:23;21.70;99.90
13186;DHT22;6658;53.080;7.428;2022-07-23T09:51:50;22.50;99.90
13186;DHT22;6658;53.080;7.428;2022-07-23T09:54:27;23.60;99.90
13186;DHT22;6658;53.080;7.428;2022-07-23T09:56:55;24.40;99.90
13186;DHT22;6658;53.080;7.428;2022-07-23T09:59:33;24.50;99.90
13186;DHT22;6658;53.080;7.428;2022-07-23T10:01:59;24.70;99.90
13186;DHT22;6658;53.080;7.428;2022-07-23T10:04:27;25.20;97.60
13186;DHT22;6658;53.080;7.428;2022-07-23T10:06:55;25.90;97.80
13186;DHT22;6658;53.080;7.428;2022-07-23T10:09:31;25.30;96.30
13186;DHT22;6658;53.080;7.428;2022-07-23T10:12:02;24.80;97.50
13186;DHT22;6658;53.080;7.428;2022-07-23T10:14:41;24.90;95.40
13186;DHT22;6658;53.080;7.428;2022-07-23T10:17:07;24.60;95.30
13186;DHT22;6658;53.080;7.428;2022-07-23T10:19:33;24.10;96.30
13186;DHT22;6658;53.080;7.428;2022-07-23T10:22:04;23.60;97.20
13186;DHT22;6658;53.080;7.428;2022-07-23T10:27:35;22.90;99.30
13186;DHT22;6658;53.080;7.428;2022-07-23T10:36:25;25.10;96.50
13186;DHT22;6658;53.080;7.428;2022-07-23T10:39:14;26.60;94.90
13186;DHT22;6658;53.080;7.428;2022-07-23T10:41:41;27.60;92.20
13186;DHT22;6658;53.080;7.428;2022-07-23T10:44:12;28.80;91.70
13186;DHT22;6658;53.080;7.428;2022-07-23T10:47:01;29.80;85.50
13186;DHT22;6658;53.080;7.428;2022-07-23T10:49:31;30.50;83.10
13186;DHT22;6658;53.080;7.428;2022-07-23T10:52:24;29.50;81.20
13186;DHT22;6658;53.080;7.428;2022-07-23T10:57:48;26.00;88.40
13186;DHT22;6658;53.080;7.428;2022-07-23T11:00:15;24.50;91.30
13186;DHT22;6658;53.080;7.428;2022-07-23T11:02:45;23.30;93.30
13186;DHT22;6658;53.080;7.428;2022-07-23T11:05:22;22.50;95.20
13186;DHT22;6658;53.080;7.428;2022-07-23T11:10:38;21.80;97.60
13186;DHT22;6658;53.080;7.428;2022-07-23T11:24:00;26.90;91.10
13186;DHT22;6658;53.080;7.428;2022-07-23T11:26:58;27.80;89.40
13186;DHT22;6658;53.080;7.428;2022-07-23T11:34:41;27.30;87.30
13186;DHT22;6658;53.080;7.428;2022-07-23T11:37:15;26.30;89.30
13186;DHT22;6658;53.080;7.428;2022-07-23T11:39:55;25.20;90.70
13186;DHT22;6658;53.080;7.428;2022-07-23T11:42:21;24.40;92.60
13186;DHT22;6658;53.080;7.428;2022-07-23T11:44:47;23.90;93.20
13186;DHT22;6658;53.080;7.428;2022-07-23T11:47:13;24.70;93.20
13186;DHT22;6658;53.080;7.428;2022-07-23T11:49:43;25.00;90.40
13186;DHT22;6658;53.080;7.428;2022-07-23T11:52:17;24.20;92.40
13186;DHT22;6658;53.080;7.428;2022-07-23T11:57:27;23.60;96.00
13186;DHT22;6658;53.080;7.428;2022-07-23T11:59:55;25.20;93.20
13186;DHT22;6658;53.080;7.428;2022-07-23T12:02:22;25.20;91.70
13186;DHT22;6658;53.080;7.428;2022-07-23T12:04:49;24.80;92.50
13186;DHT22;6658;53.080;7.428;2022-07-23T12:07:29;24.40;93.10
13186;DHT22;6658;53.080;7.428;2022-07-23T12:09:55;23.90;93.50
13186;DHT22;6658;53.080;7.428;2022-07-23T12:12:22;23.40;93.50
13186;DHT22;6658;53.080;7.428;2022-07-23T12:14:56;22.90;94.70
13186;DHT22;6658;53.080;7.428;2022-07-23T12:17:31;22.60;95.50
13186;DHT22;6658;53.080;7.428;2022-07-23T12:19:58;22.60;96.50
13186;DHT22;6658;53.080;7.428;2022-07-23T12:22:26;22.70;95.70
13186;DHT22;6658;53.080;7.428;2022-07-23T12:25:04;22.50;96.30
13186;DHT22;6658;53.080;7.428;2022-07-23T12:27:31;22.30;97.90
13186;DHT22;6658;53.080;7.428;2022-07-23T12:29:57;22.50;97.00
13186;DHT22;6658;53.080;7.428;2022-07-23T12:32:26;22.70;97.60
13186;DHT22;6658;53.080;7.428;2022-07-23T12:35:06;22.90;97.10
13186;DHT22;6658;53.080;7.428;2022-07-23T12:37:40;23.00;96.20
13186;DHT22;6658;53.080;7.428;2022-07-23T12:40:26;23.00;97.30
13186;DHT22;6658;53.080;7.428;2022-07-23T12:42:56;23.20;96.10
13186;DHT22;6658;53.080;7.428;2022-07-23T12:45:22;23.00;95.90
13186;DHT22;6658;53.080;7.428;2022-07-23T12:48:03;23.00;97.20
13186;DHT22;6658;53.080;7.428;2022-07-23T12:53:22;23.10;97.20
13186;DHT22;6658;53.080;7.428;2022-07-23T12:55:48;23.30;97.20
13186;DHT22;6658;53.080;7.428;2022-07-23T12:58:19;23.40;97.30
13186;DHT22;6658;53.080;7.428;2022-07-23T13:00:59;23.30;97.00
13186;DHT22;6658;53.080;7.428;2022-07-23T13:03:31;23.20;97.50
13186;DHT22;6658;53.080;7.428;2022-07-23T13:05:58;23.30;96.80
13186;DHT22;6658;53.080;7.428;2022-07-23T13:08:25;23.30;97.80
13186;DHT22;6658;53.080;7.428;2022-07-23T13:10:52;23.40;97.10
13186;DHT22;6658;53.080;7.428;2022-07-23T13:13:21;23.60;97.50
13186;DHT22;6658;53.080;7.428;2022-07-23T13:15:48;23.50;97.20
13186;DHT22;6658;53.080;7.428;2022-07-23T13:18:13;23.50;97.30
13186;DHT22;6658;53.080;7.428;2022-07-23T13:20:39;23.40;97.60
13186;DHT22;6658;53.080;7.428;2022-07-23T13:23:06;23.30;97.90
13186;DHT22;6658;53.080;7.428;2022-07-23T13:25:32;23.10;97.70
13186;DHT22;6658;53.080;7.428;2022-07-23T13:27:58;23.10;98.20
13186;DHT22;6658;53.080;7.428;2022-07-23T13:30:24;23.10;98.70
13186;DHT22;6658;53.080;7.428;2022-07-23T13:32:49;23.20;99.10
13186;DHT22;6658;53.080;7.428;2022-07-23T13:35:15;23.20;98.50
13186;DHT22;6658;53.080;7.428;2022-07-23T13:37:41;23.10;99.00
13186;DHT22;6658;53.080;7.428;2022-07-23T13:40:07;22.90;99.40
13186;DHT22;6658;53.080;7.428;2022-07-23T13:42:33;22.80;99.20
13186;DHT22;6658;53.080;7.428;2022-07-23T13:44:59;22.60;99.50
13186;DHT22;6658;53.080;7.428;2022-07-23T13:47:25;22.40;99.60
13186;DHT22;6658;53.080;7.428;2022-07-23T13:49:50;22.10;99.90
13186;DHT22;6658;53.080;7.428;2022-07-23T13:52:16;21.90;99.90
13186;DHT22;6658;53.080;7.428;2022-07-23T13:54:42;21.80;99.90
13186;DHT22;6658;53.080;7.428;2022-07-23T13:57:07;21.70;99.90
13186;DHT22;6658;53.080;7.428;2022-07-23T13:59:35;21.90;99.90
13186;DHT22;6658;53.080;7.428;2022-07-23T14:02:04;21.90;99.90
13186;DHT22;6658;53.080;7.428;2022-07-23T14:04:30;21.90;99.90
13186;DHT22;6658;53.080;7.428;2022-07-23T14:06:56;21.70;99.90
13186;DHT22;6658;53.080;7.428;2022-07-23T14:09:22;21.70;99.90
13186;DHT22;6658;53.080;7.428;2022-07-23T14:11:48;21.70;99.90
13186;DHT22;6658;53.080;7.428;2022-07-23T14:14:16;21.70;99.90
13186;DHT22;6658;53.080;7.428;2022-07-23T14:16:42;21.70;99.90
13186;DHT22;6658;53.080;7.428;2022-07-23T14:19:08;21.60;99.90
13186;DHT22;6658;53.080;7.428;2022-07-23T14:21:34;21.70;99.90
13186;DHT22;6658;53.080;7.428;2022-07-23T14:23:59;21.70;99.90
13186;DHT22;6658;53.080;7.428;2022-07-23T14:26:25;21.50;99.90
13186;DHT22;6658;53.080;7.428;2022-07-23T14:28:51;21.40;99.90
13186;DHT22;6658;53.080;7.428;2022-07-23T14:31:17;21.40;99.90
13186;DHT22;6658;53.080;7.428;2022-07-23T14:33:43;21.40;99.90
13186;DHT22;6658;53.080;7.428;2022-07-23T14:36:08;21.30;99.90
13186;DHT22;6658;53.080;7.428;2022-07-23T14:38:34;21.40;99.90
13186;DHT22;6658;53.080;7.428;2022-07-23T14:41:00;21.40;99.90
13186;DHT22;6658;53.080;7.428;2022-07-23T14:43:25;21.30;99.90
13186;DHT22;6658;53.080;7.428;2022-07-23T14:45:51;21.20;99.90
13186;DHT22;6658;53.080;7.428;2022-07-23T14:48:17;21.30;99.90
13186;DHT22;6658;53.080;7.428;2022-07-23T14:50:42;21.50;99.90
13186;DHT22;6658;53.080;7.428;2022-07-23T14:53:08;21.50;99.90
13186;DHT22;6658;53.080;7.428;2022-07-23T14:55:34;21.50;99.90
13186;DHT22;6658;53.080;7.428;2022-07-23T14:57:59;21.60;99.90
13186;DHT22;6658;53.080;7.428;2022-07-23T15:00:25;21.60;99.90
13186;DHT22;6658;53.080;7.428;2022-07-23T15:02:52;21.50;99.90
13186;DHT22;6658;53.080;7.428;2022-07-23T15:05:18;21.40;99.90
13186;DHT22;6658;53.080;7.428;2022-07-23T15:07:44;21.40;99.90
13186;DHT22;6658;53.080;7.428;2022-07-23T15:10:10;21.30;99.90
13186;DHT22;6658;53.080;7.428;2022-07-23T15:12:36;21.40;99.90
13186;DHT22;6658;53.080;7.428;2022-07-23T15:15:02;21.50;99.90
13186;DHT22;6658;53.080;7.428;2022-07-23T15:17:28;21.60;99.90
13186;DHT22;6658;53.080;7.428;2022-07-23T15:19:54;21.70;99.90
13186;DHT22;6658;53.080;7.428;2022-07-23T15:22:20;21.70;99.90
13186;DHT22;6658;53.080;7.428;2022-07-23T15:24:45;21.80;99.90
13186;DHT22;6658;53.080;7.428;2022-07-23T15:27:11;22.10;99.90
13186;DHT22;6658;53.080;7.428;2022-07-23T15:29:37;22.30;99.90
13186;DHT22;6658;53.080;7.428;2022-07-23T15:32:03;22.60;99.90
13186;DHT22;6658;53.080;7.428;2022-07-23T15:34:29;22.90;99.90
13186;DHT22;6658;53.080;7.428;2022-07-23T15:36:55;23.10;99.90
13186;DHT22;6658;53.080;7.428;2022-07-23T15:39:21;23.30;99.90
13186;DHT22;6658;53.080;7.428;2022-07-23T15:41:46;23.50;99.90
13186;DHT22;6658;53.080;7.428;2022-07-23T15:44:12;23.70;99.90
13186;DHT22;6658;53.080;7.428;2022-07-23T15:46:39;23.60;99.90
13186;DHT22;6658;53.080;7.428;2022-07-23T15:49:04;23.30;99.90
13186;DHT22;6658;53.080;7.428;2022-07-23T15:51:30;23.10;99.90
13186;DHT22;6658;53.080;7.428;2022-07-23T15:53:56;22.90;99.90
13186;DHT22;6658;53.080;7.428;2022-07-23T15:56:22;22.80;99.90
13186;DHT22;6658;53.080;7.428;2022-07-23T15:58:48;22.70;99.90
13186;DHT22;6658;53.080;7.428;2022-07-23T16:01:13;22.60;99.90
13186;DHT22;6658;53.080;7.428;2022-07-23T16:03:40;22.40;99.90
13186;DHT22;6658;53.080;7.428;2022-07-23T16:06:06;22.30;99.90
13186;DHT22;6658;53.080;7.428;2022-07-23T16:08:32;22.20;99.90
13186;DHT22;6658;53.080;7.428;2022-07-23T16:10:58;22.20;99.90
13186;DHT22;6658;53.080;7.428;2022-07-23T16:13:25;22.20;99.90
13186;DHT22;6658;53.080;7.428;2022-07-23T16:15:51;22.10;99.90
13186;DHT22;6658;53.080;7.428;2022-07-23T16:18:16;22.00;99.90
13186;DHT22;6658;53.080;7.428;2022-07-23T16:20:42;21.90;99.90
13186;DHT22;6658;53.080;7.428;2022-07-23T16:23:08;21.80;99.90
13186;DHT22;6658;53.080;7.428;2022-07-23T16:25:34;21.90;99.90
13186;DHT22;6658;53.080;7.428;2022-07-23T16:28:00;22.00;99.90
13186;DHT22;6658;53.080;7.428;2022-07-23T16:30:26;22.20;99.90